Time;durP1;ratioP1;P1;durP2;ratioP2;P2;SDS_P1;SDS_P2;PMS_P1;PMS_P2;Temp;Humidity;BMP_temperature;BMP_pressure;BME280_temperature;BME280_humidity;BME280_pressure;Samples;Min_cycle;Max_cycle;Signal;HPM_P1;HPM_P2
2022/05/07 00:02:03;;;;;;;;;;;11.10;99.90;;;;;;5112823;28;19924;-61
2022/05/07 00:04:28;;;;;;;;;;;11.10;99.90;;;;;;5113348;28;19967;-61
2022/05/07 00:06:55;;;;;;;;;;;11.10;99.90;;;;;;5112810;28;19947;-60
2022/05/07 00:09:20;;;;;;;;;;;11.10;99.90;;;;;;5113194;28;20374;-60
2022/05/07 00:11:47;;;;;;;;;;;11.10;99.90;;;;;;5113602;28;19924;-60
2022/05/07 00:14:12;;;;;;;;;;;11.10;99.90;;;;;;5112692;28;19924;-61
2022/05/07 00:19:25;;;;;;;;;;;11.10;99.90;;;;;;5116978;28;19986;-61
2022/05/07 00:21:51;;;;;;;;;;;11.00;99.90;;;;;;5117006;28;20512;-60
2022/05/07 00:24:17;;;;;;;;;;;11.00;99.90;;;;;;5117595;28;19924;-60
2022/05/07 00:26:43;;;;;;;;;;;11.00;99.90;;;;;;5117062;28;19945;-60
2022/05/07 00:29:09;;;;;;;;;;;11.00;99.90;;;;;;5098000;28;19923;-60
2022/05/07 00:31:35;;;;;;;;;;;11.10;99.90;;;;;;5098856;28;20316;-60
2022/05/07 00:34:00;;;;;;;;;;;11.00;99.90;;;;;;5098438;28;19930;-60
2022/05/07 00:36:26;;;;;;;;;;;11.00;99.90;;;;;;5116204;28;20014;-60
2022/05/07 00:38:52;;;;;;;;;;;11.00;99.90;;;;;;5099049;28;19950;-60
2022/05/07 00:41:18;;;;;;;;;;;11.00;99.90;;;;;;5117222;28;19931;-61
2022/05/07 00:43:43;;;;;;;;;;;11.00;99.90;;;;;;5096978;28;19928;-60
2022/05/07 00:46:10;;;;;;;;;;;11.00;99.90;;;;;;5098690;28;20293;-60
2022/05/07 00:48:37;;;;;;;;;;;11.10;99.90;;;;;;5117342;28;19930;-60
2022/05/07 00:53:48;;;;;;;;;;;11.10;99.90;;;;;;5098835;28;19930;-60
2022/05/07 00:56:15;;;;;;;;;;;11.10;99.90;;;;;;5080791;28;20031;-60
2022/05/07 00:58:41;;;;;;;;;;;11.20;99.90;;;;;;5116418;28;19924;-60
2022/05/07 01:01:06;;;;;;;;;;;11.10;99.90;;;;;;5098344;28;19976;-60
2022/05/07 01:03:33;;;;;;;;;;;11.10;99.90;;;;;;5115069;28;19930;-60
2022/05/07 01:06:00;;;;;;;;;;;11.10;99.90;;;;;;5098186;28;20018;-60
2022/05/07 01:08:28;;;;;;;;;;;11.10;99.90;;;;;;5098552;28;19924;-60
2022/05/07 01:10:55;;;;;;;;;;;11.10;99.90;;;;;;5097494;28;19928;-60
2022/05/07 01:13:22;;;;;;;;;;;11.10;99.90;;;;;;5097494;28;19931;-61
2022/05/07 01:15:53;;;;;;;;;;;11.10;99.90;;;;;;5098205;28;19923;-60
2022/05/07 01:18:19;;;;;;;;;;;11.10;99.90;;;;;;5097505;28;19924;-60
2022/05/07 01:20:45;;;;;;;;;;;11.10;99.90;;;;;;5115826;28;20381;-60
2022/05/07 01:23:13;;;;;;;;;;;11.20;99.90;;;;;;5098389;28;19923;-60
2022/05/07 01:25:39;;;;;;;;;;;11.20;99.90;;;;;;5115458;28;19939;-60
2022/05/07 01:28:05;;;;;;;;;;;11.20;99.90;;;;;;5097416;28;19978;-60
2022/05/07 01:30:34;;;;;;;;;;;11.10;99.90;;;;;;5098106;28;19978;-60
2022/05/07 01:33:00;;;;;;;;;;;11.10;99.90;;;;;;5097449;28;19992;-60
2022/05/07 01:35:26;;;;;;;;;;;11.10;99.90;;;;;;5114225;28;20384;-60
2022/05/07 01:37:53;;;;;;;;;;;11.10;99.90;;;;;;5116081;28;19943;-60
2022/05/07 01:40:19;;;;;;;;;;;11.20;99.90;;;;;;5115300;28;19923;-60
2022/05/07 01:42:48;;;;;;;;;;;11.30;99.90;;;;;;5097387;28;20398;-60
2022/05/07 01:45:13;;;;;;;;;;;11.30;99.90;;;;;;5115518;28;19963;-60
2022/05/07 01:50:28;;;;;;;;;;;11.40;99.90;;;;;;5096980;28;19924;-60
2022/05/07 01:52:54;;;;;;;;;;;11.40;99.90;;;;;;5115173;28;20381;-60
2022/05/07 01:55:20;;;;;;;;;;;11.40;99.90;;;;;;5097313;28;20385;-60
2022/05/07 01:57:50;;;;;;;;;;;11.50;99.90;;;;;;5079911;28;19928;-60
2022/05/07 02:00:16;;;;;;;;;;;11.50;99.90;;;;;;5093394;28;19997;-60
2022/05/07 02:02:43;;;;;;;;;;;11.50;99.90;;;;;;5096993;28;20009;-60
2022/05/07 02:05:16;;;;;;;;;;;11.50;99.90;;;;;;5076541;28;19998;-60
2022/05/07 02:07:42;;;;;;;;;;;11.60;99.90;;;;;;5094573;28;20038;-60
2022/05/07 02:10:08;;;;;;;;;;;11.60;99.90;;;;;;5077142;28;19964;-60
2022/05/07 02:12:34;;;;;;;;;;;11.60;99.90;;;;;;5110915;28;20374;-60
2022/05/07 02:15:00;;;;;;;;;;;11.70;99.90;;;;;;5096325;28;20339;-60
2022/05/07 02:17:27;;;;;;;;;;;11.70;99.90;;;;;;5097170;28;20014;-60
2022/05/07 02:19:52;;;;;;;;;;;11.70;99.90;;;;;;5096152;28;19974;-60
2022/05/07 02:22:19;;;;;;;;;;;11.70;99.90;;;;;;5096587;28;19928;-60
2022/05/07 02:24:46;;;;;;;;;;;11.70;99.90;;;;;;5097209;28;19971;-60
2022/05/07 02:27:18;;;;;;;;;;;11.70;99.90;;;;;;5079772;28;19930;-60
2022/05/07 02:29:44;;;;;;;;;;;11.60;99.90;;;;;;5095595;28;20312;-60
2022/05/07 02:32:13;;;;;;;;;;;11.70;99.90;;;;;;5096792;28;19924;-60
2022/05/07 02:34:42;;;;;;;;;;;11.70;99.90;;;;;;5095583;28;19993;-60
2022/05/07 02:37:16;;;;;;;;;;;11.60;99.90;;;;;;5079085;28;20363;-60
2022/05/07 02:39:48;;;;;;;;;;;11.70;99.90;;;;;;5079651;28;19969;-60
2022/05/07 02:45:04;;;;;;;;;;;11.80;99.90;;;;;;5092903;28;19988;-60
2022/05/07 02:47:30;;;;;;;;;;;11.70;99.90;;;;;;5078648;28;20426;-60
2022/05/07 02:49:56;;;;;;;;;;;11.80;99.90;;;;;;5095765;28;19928;-60
2022/05/07 02:52:21;;;;;;;;;;;11.80;99.90;;;;;;5096704;28;19923;-60
2022/05/07 02:54:47;;;;;;;;;;;11.80;99.90;;;;;;5096450;28;19924;-60
2022/05/07 02:57:13;;;;;;;;;;;11.90;99.90;;;;;;5094938;28;20020;-60
2022/05/07 02:59:41;;;;;;;;;;;11.90;99.90;;;;;;5096069;28;19928;-60
2022/05/07 03:02:07;;;;;;;;;;;11.90;99.90;;;;;;5096318;28;20010;-60
2022/05/07 03:04:34;;;;;;;;;;;12.00;99.90;;;;;;5094759;28;20413;-60
2022/05/07 03:06:59;;;;;;;;;;;12.00;99.90;;;;;;5096152;28;20382;-60
2022/05/07 03:09:25;;;;;;;;;;;12.00;99.90;;;;;;5096171;28;19923;-60
2022/05/07 03:11:51;;;;;;;;;;;12.00;99.90;;;;;;5094617;28;19924;-60
2022/05/07 03:14:22;;;;;;;;;;;12.00;99.90;;;;;;5095329;28;20434;-60
2022/05/07 03:16:48;;;;;;;;;;;11.90;99.90;;;;;;5114311;28;19924;-60
2022/05/07 03:19:15;;;;;;;;;;;11.90;99.90;;;;;;5078120;28;19924;-60
2022/05/07 03:21:42;;;;;;;;;;;11.80;99.90;;;;;;5095950;28;19924;-60
2022/05/07 03:24:09;;;;;;;;;;;11.80;99.90;;;;;;5078222;28;19930;-60
2022/05/07 03:26:35;;;;;;;;;;;11.80;99.90;;;;;;5095302;28;19924;-60
2022/05/07 03:29:00;;;;;;;;;;;11.80;99.90;;;;;;5095738;28;19931;-60
2022/05/07 03:31:27;;;;;;;;;;;11.80;99.90;;;;;;5077595;28;19965;-60
2022/05/07 03:33:53;;;;;;;;;;;11.80;99.90;;;;;;5113435;28;20022;-60
2022/05/07 03:36:23;;;;;;;;;;;11.80;99.90;;;;;;5078770;28;19928;-60
2022/05/07 03:38:52;;;;;;;;;;;11.80;99.90;;;;;;5095229;28;20030;-60
2022/05/07 03:41:21;;;;;;;;;;;11.80;99.90;;;;;;5094642;28;19923;-60
2022/05/07 03:43:46;;;;;;;;;;;11.80;99.90;;;;;;5095519;28;20010;-60
2022/05/07 03:46:12;;;;;;;;;;;11.90;99.90;;;;;;5113188;28;20346;-60
2022/05/07 03:48:47;;;;;;;;;;;11.90;99.90;;;;;;5094471;28;19931;-60
2022/05/07 03:51:14;;;;;;;;;;;11.90;99.90;;;;;;5095651;28;20057;-60
2022/05/07 03:53:39;;;;;;;;;;;11.90;99.90;;;;;;5112895;28;20010;-60
2022/05/07 03:56:15;;;;;;;;;;;11.90;99.90;;;;;;5077977;28;19989;-60
2022/05/07 03:58:41;;;;;;;;;;;11.90;99.90;;;;;;5113530;28;19931;-60
2022/05/07 04:01:08;;;;;;;;;;;11.90;99.90;;;;;;5094756;28;19924;-60
2022/05/07 04:03:35;;;;;;;;;;;11.90;99.90;;;;;;5095172;28;20366;-60
2022/05/07 04:06:01;;;;;;;;;;;11.90;99.90;;;;;;5078139;28;19932;-60
2022/05/07 04:08:27;;;;;;;;;;;11.90;99.90;;;;;;5095010;28;19963;-60
2022/05/07 04:10:54;;;;;;;;;;;11.90;99.90;;;;;;5077989;28;19927;-60
2022/05/07 04:13:24;;;;;;;;;;;11.90;99.90;;;;;;5077863;28;20257;-60
2022/05/07 04:15:54;;;;;;;;;;;11.90;99.90;;;;;;5077846;28;19984;-60
2022/05/07 04:18:23;;;;;;;;;;;11.90;99.90;;;;;;5094956;28;20289;-60
2022/05/07 04:20:52;;;;;;;;;;;11.90;99.90;;;;;;5077825;28;19963;-60
2022/05/07 04:23:21;;;;;;;;;;;11.80;99.90;;;;;;5095078;28;20285;-60
2022/05/07 04:25:47;;;;;;;;;;;11.90;99.90;;;;;;5058046;28;20346;-60
2022/05/07 04:28:16;;;;;;;;;;;12.00;99.90;;;;;;5089125;28;20215;-60
2022/05/07 04:30:45;;;;;;;;;;;12.10;99.90;;;;;;5058044;28;19924;-60
2022/05/07 04:33:15;;;;;;;;;;;12.10;99.90;;;;;;5083158;28;19949;-60
2022/05/07 04:35:41;;;;;;;;;;;12.10;99.90;;;;;;5094580;28;19931;-60
2022/05/07 04:38:07;;;;;;;;;;;12.20;99.90;;;;;;5095334;28;19946;-60
2022/05/07 04:40:34;;;;;;;;;;;12.20;99.90;;;;;;5094704;28;19952;-60
2022/05/07 04:43:00;;;;;;;;;;;12.20;99.90;;;;;;5112146;28;19924;-60
2022/05/07 04:45:29;;;;;;;;;;;12.20;99.90;;;;;;5095116;28;20293;-60
2022/05/07 04:48:04;;;;;;;;;;;12.20;99.90;;;;;;5111703;28;19932;-60
2022/05/07 04:50:33;;;;;;;;;;;12.20;99.90;;;;;;5110945;28;19924;-60
2022/05/07 04:53:26;;;;;;;;;;;12.20;99.90;;;;;;5112383;28;20025;-60
2022/05/07 04:55:56;;;;;;;;;;;12.20;99.90;;;;;;5112516;28;19931;-60
2022/05/07 04:58:24;;;;;;;;;;;12.30;99.90;;;;;;5113265;28;20626;-60
2022/05/07 05:00:52;;;;;;;;;;;12.40;99.90;;;;;;5095526;28;19924;-60
2022/05/07 05:03:21;;;;;;;;;;;12.40;99.90;;;;;;5080867;28;19923;-60
2022/05/07 05:05:58;;;;;;;;;;;12.40;99.90;;;;;;5115510;28;20018;-60
2022/05/07 05:08:39;;;;;;;;;;;12.50;99.90;;;;;;5097480;28;19931;-60
2022/05/07 05:11:05;;;;;;;;;;;12.50;99.90;;;;;;5097833;28;19924;-60
2022/05/07 05:13:33;;;;;;;;;;;12.60;99.90;;;;;;5116660;28;19924;-60
2022/05/07 05:15:59;;;;;;;;;;;12.60;99.90;;;;;;5097889;28;19931;-60
2022/05/07 05:18:37;;;;;;;;;;;12.70;99.90;;;;;;5080219;28;19930;-60
2022/05/07 05:21:04;;;;;;;;;;;12.80;99.90;;;;;;5116337;28;19924;-60
2022/05/07 05:23:46;;;;;;;;;;;12.80;99.90;;;;;;5096860;28;19924;-60
2022/05/07 05:26:13;;;;;;;;;;;12.90;99.90;;;;;;5080733;28;20277;-60
2022/05/07 05:28:47;;;;;;;;;;;12.90;99.90;;;;;;5081133;28;19931;-60
2022/05/07 05:31:15;;;;;;;;;;;12.90;99.90;;;;;;5093129;28;19928;-60
2022/05/07 05:33:45;;;;;;;;;;;13.00;99.90;;;;;;5077816;28;19930;-60
2022/05/07 05:36:18;;;;;;;;;;;13.00;99.90;;;;;;5095685;28;19928;-60
2022/05/07 05:38:47;;;;;;;;;;;13.00;99.90;;;;;;5113844;28;19950;-60
2022/05/07 05:41:16;;;;;;;;;;;13.00;99.90;;;;;;5097671;28;19931;-60
2022/05/07 05:43:46;;;;;;;;;;;13.00;99.90;;;;;;5097201;28;19934;-60
2022/05/07 05:46:14;;;;;;;;;;;13.10;99.90;;;;;;5096402;28;20377;-60
2022/05/07 05:48:41;;;;;;;;;;;13.00;99.90;;;;;;5081134;28;19946;-60
2022/05/07 05:51:07;;;;;;;;;;;13.10;99.90;;;;;;5097733;28;20382;-60
2022/05/07 05:53:38;;;;;;;;;;;13.10;99.90;;;;;;5095830;28;19924;-60
2022/05/07 05:56:04;;;;;;;;;;;13.20;99.90;;;;;;5097749;28;19927;-60
2022/05/07 05:58:38;;;;;;;;;;;13.30;99.90;;;;;;5079790;28;19924;-60
2022/05/07 06:01:06;;;;;;;;;;;13.30;99.90;;;;;;5096441;28;20410;-60
2022/05/07 06:03:34;;;;;;;;;;;13.50;99.90;;;;;;5097440;28;19930;-60
2022/05/07 06:06:00;;;;;;;;;;;13.50;99.90;;;;;;5096595;28;19923;-60
2022/05/07 06:08:26;;;;;;;;;;;13.60;99.90;;;;;;5097143;28;20007;-60
2022/05/07 06:10:54;;;;;;;;;;;13.70;99.90;;;;;;5097154;28;19924;-60
2022/05/07 06:13:20;;;;;;;;;;;13.80;99.90;;;;;;5095194;28;20404;-60
2022/05/07 06:15:51;;;;;;;;;;;13.90;99.90;;;;;;5096383;28;20321;-60
2022/05/07 06:18:19;;;;;;;;;;;14.00;99.90;;;;;;5097133;28;20419;-61
2022/05/07 06:20:45;;;;;;;;;;;14.10;99.90;;;;;;5096284;28;19924;-60
2022/05/07 06:23:12;;;;;;;;;;;14.10;99.90;;;;;;5079690;28;20011;-60
2022/05/07 06:28:23;;;;;;;;;;;14.30;99.90;;;;;;5114263;28;19985;-60
2022/05/07 06:30:49;;;;;;;;;;;14.30;99.90;;;;;;5113066;28;20390;-60
2022/05/07 06:33:17;;;;;;;;;;;14.30;99.90;;;;;;5096942;28;20344;-60
2022/05/07 06:35:52;;;;;;;;;;;14.40;99.90;;;;;;5113067;28;20011;-60
2022/05/07 06:38:24;;;;;;;;;;;14.40;99.90;;;;;;5095547;28;20034;-60
2022/05/07 06:40:51;;;;;;;;;;;14.60;99.90;;;;;;5113005;28;20282;-60
2022/05/07 06:43:17;;;;;;;;;;;14.60;99.90;;;;;;5114881;28;19926;-60
2022/05/07 06:45:52;;;;;;;;;;;14.70;99.90;;;;;;5079058;28;20339;-60
2022/05/07 06:48:18;;;;;;;;;;;14.90;99.90;;;;;;5095692;28;19984;-60
2022/05/07 06:50:49;;;;;;;;;;;14.90;99.90;;;;;;5079206;28;20408;-60
2022/05/07 06:53:19;;;;;;;;;;;15.00;99.90;;;;;;5078929;28;20010;-59
2022/05/07 06:55:54;;;;;;;;;;;15.30;99.90;;;;;;5113636;28;20011;-60
2022/05/07 06:58:25;;;;;;;;;;;15.10;99.90;;;;;;5114724;28;20372;-60
2022/05/07 07:00:51;;;;;;;;;;;15.30;99.90;;;;;;5114078;28;19984;-60
2022/05/07 07:03:16;;;;;;;;;;;15.00;99.90;;;;;;5113157;28;19928;-60
2022/05/07 07:05:43;;;;;;;;;;;15.40;99.90;;;;;;5114428;28;20374;-60
2022/05/07 07:08:11;;;;;;;;;;;15.30;99.90;;;;;;5113674;28;19924;-60
2022/05/07 07:10:37;;;;;;;;;;;15.50;99.90;;;;;;5113241;28;19931;-60
2022/05/07 07:13:04;;;;;;;;;;;15.70;99.90;;;;;;5113970;28;19924;-60
2022/05/07 07:15:29;;;;;;;;;;;15.80;99.90;;;;;;5113478;28;20374;-60
2022/05/07 07:17:55;;;;;;;;;;;16.10;99.90;;;;;;5113293;28;19931;-60
2022/05/07 07:20:21;;;;;;;;;;;16.30;99.90;;;;;;5114038;28;19967;-60
2022/05/07 07:22:46;;;;;;;;;;;16.10;99.90;;;;;;5113559;28;19924;-61
2022/05/07 07:25:14;;;;;;;;;;;;;;;;;;5113269;28;19924;-60
2022/05/07 07:27:40;;;;;;;;;;;16.60;99.90;;;;;;5114245;28;19924;-60
2022/05/07 07:30:06;;;;;;;;;;;16.60;99.90;;;;;;5101386;28;19946;-61
2022/05/07 07:32:32;;;;;;;;;;;16.90;99.90;;;;;;5113483;28;19924;-60
2022/05/07 07:34:57;;;;;;;;;;;16.80;99.90;;;;;;5108259;28;19932;-61
2022/05/07 07:37:23;;;;;;;;;;;17.10;99.90;;;;;;5111225;28;19924;-60
2022/05/07 07:39:49;;;;;;;;;;;17.20;99.90;;;;;;5112647;28;19934;-61
2022/05/07 07:42:16;;;;;;;;;;;17.00;99.90;;;;;;5094904;28;20006;-61
2022/05/07 07:44:42;;;;;;;;;;;17.20;99.90;;;;;;5112371;28;20377;-60
2022/05/07 07:49:53;;;;;;;;;;;17.30;99.90;;;;;;5112254;28;19928;-60
2022/05/07 07:52:19;;;;;;;;;;;17.30;99.90;;;;;;5111852;28;20441;-61
2022/05/07 07:54:44;;;;;;;;;;;17.30;99.90;;;;;;5094734;28;19927;-61
2022/05/07 07:57:10;;;;;;;;;;;17.40;99.90;;;;;;5112925;28;19967;-61
2022/05/07 07:59:36;;;;;;;;;;;17.40;99.90;;;;;;5111938;28;19928;-60
2022/05/07 08:02:01;;;;;;;;;;;17.50;99.90;;;;;;5113412;28;19968;-60
2022/05/07 08:04:27;;;;;;;;;;;17.50;99.90;;;;;;5113528;28;20023;-60
2022/05/07 08:12:22;;;;;;;;;;;17.60;99.90;;;;;;5112995;28;19924;-60
2022/05/07 08:14:48;;;;;;;;;;;17.60;99.90;;;;;;5094069;28;19931;-60
2022/05/07 08:17:14;;;;;;;;;;;17.80;99.90;;;;;;5094971;28;19928;-60
2022/05/07 08:19:40;;;;;;;;;;;18.20;99.90;;;;;;5112094;28;19931;-61
2022/05/07 08:22:05;;;;;;;;;;;18.60;99.90;;;;;;5111524;28;19927;-60
2022/05/07 08:24:31;;;;;;;;;;;18.60;99.90;;;;;;5111557;28;19924;-61
2022/05/07 08:26:57;;;;;;;;;;;18.50;99.90;;;;;;5093012;28;19924;-60
2022/05/07 08:29:23;;;;;;;;;;;18.30;99.90;;;;;;5111751;28;19924;-61
2022/05/07 08:31:50;;;;;;;;;;;18.20;99.90;;;;;;5111495;28;19924;-61
2022/05/07 08:34:16;;;;;;;;;;;18.20;99.90;;;;;;5111940;28;19930;-61
2022/05/07 08:36:41;;;;;;;;;;;18.30;99.90;;;;;;5115301;28;20013;-61
2022/05/07 08:39:08;;;;;;;;;;;18.40;99.90;;;;;;5113156;28;19932;-60
2022/05/07 08:41:34;;;;;;;;;;;18.40;99.90;;;;;;5111541;28;19971;-61
2022/05/07 08:43:59;;;;;;;;;;;18.40;99.90;;;;;;5116412;28;20012;-61
2022/05/07 08:46:25;;;;;;;;;;;18.30;99.90;;;;;;5116990;28;19924;-61
2022/05/07 08:48:51;;;;;;;;;;;18.20;99.90;;;;;;5115987;28;20366;-61
2022/05/07 08:51:18;;;;;;;;;;;18.10;99.90;;;;;;5098288;28;19931;-60
2022/05/07 08:53:44;;;;;;;;;;;17.90;99.90;;;;;;5096210;28;20007;-61
2022/05/07 08:56:14;;;;;;;;;;;17.90;99.90;;;;;;5095607;28;19978;-61
2022/05/07 08:58:45;;;;;;;;;;;17.80;99.90;;;;;;5104269;28;20393;-61
2022/05/07 09:01:11;;;;;;;;;;;17.70;99.90;;;;;;5115926;28;19930;-61
2022/05/07 09:03:38;;;;;;;;;;;17.80;99.90;;;;;;5115594;28;20301;-61
2022/05/07 09:06:13;;;;;;;;;;;17.80;99.90;;;;;;5115535;28;19924;-61
2022/05/07 09:08:39;;;;;;;;;;;17.90;99.90;;;;;;5114037;28;20018;-61
2022/05/07 09:11:05;;;;;;;;;;;17.80;99.90;;;;;;5116617;28;20328;-61
2022/05/07 09:13:33;;;;;;;;;;;17.80;99.90;;;;;;5114573;28;20414;-61
2022/05/07 09:15:59;;;;;;;;;;;17.70;99.90;;;;;;5115634;28;19930;-61
2022/05/07 09:18:25;;;;;;;;;;;17.60;99.90;;;;;;5116140;28;19927;-60
2022/05/07 09:21:15;;;;;;;;;;;17.50;99.90;;;;;;5115413;28;19923;-61
2022/05/07 09:23:45;;;;;;;;;;;17.40;99.90;;;;;;5114448;28;20286;-61
2022/05/07 09:26:23;;;;;;;;;;;17.40;99.90;;;;;;5096163;28;19924;-61
2022/05/07 09:28:49;;;;;;;;;;;17.40;99.90;;;;;;5114635;28;19927;-61
2022/05/07 09:31:23;;;;;;;;;;;17.50;99.90;;;;;;5114703;28;20291;-61
2022/05/07 09:33:48;;;;;;;;;;;17.60;99.90;;;;;;5115620;28;19971;-61
2022/05/07 09:36:14;;;;;;;;;;;17.80;99.90;;;;;;5114933;28;20064;-61
2022/05/07 09:38:40;;;;;;;;;;;18.00;99.90;;;;;;5114731;28;19928;-61
2022/05/07 09:41:06;;;;;;;;;;;18.20;99.90;;;;;;5115955;28;20015;-61
2022/05/07 09:43:32;;;;;;;;;;;18.50;99.90;;;;;;5114734;28;19927;-61
2022/05/07 09:45:58;;;;;;;;;;;18.80;99.90;;;;;;5114994;28;19930;-61
2022/05/07 09:48:24;;;;;;;;;;;19.10;99.90;;;;;;5116173;28;19923;-61
2022/05/07 09:50:50;;;;;;;;;;;19.50;99.90;;;;;;5095900;28;19985;-61
2022/05/07 09:58:47;;;;;;;;;;;20.90;99.90;;;;;;5114606;28;19969;-61
2022/05/07 10:01:28;;;;;;;;;;;21.00;99.90;;;;;;5115684;28;19928;-61
2022/05/07 10:03:54;;;;;;;;;;;20.80;99.90;;;;;;5115505;28;20445;-61
2022/05/07 10:06:23;;;;;;;;;;;20.80;99.90;;;;;;5114593;28;20023;-61
2022/05/07 10:08:56;;;;;;;;;;;20.70;99.90;;;;;;5115522;28;19924;-61
2022/05/07 10:11:23;;;;;;;;;;;20.90;99.90;;;;;;5115358;28;19924;-61
2022/05/07 10:13:53;;;;;;;;;;;21.00;99.90;;;;;;5113309;28;19923;-61
2022/05/07 10:16:20;;;;;;;;;;;21.10;99.90;;;;;;5115118;28;19924;-61
2022/05/07 10:18:45;;;;;;;;;;;21.20;99.90;;;;;;5112147;28;19925;-61
2022/05/07 10:21:12;;;;;;;;;;;21.40;99.90;;;;;;5114548;28;20366;-61
2022/05/07 10:23:47;;;;;;;;;;;21.30;99.90;;;;;;5115287;28;19924;-61
2022/05/07 10:26:13;;;;;;;;;;;21.20;99.90;;;;;;5113837;28;20498;-61
2022/05/07 10:28:40;;;;;;;;;;;21.10;99.90;;;;;;5096667;28;20012;-61
2022/05/07 10:31:15;;;;;;;;;;;21.00;99.90;;;;;;5094669;28;19924;-61
2022/05/07 10:33:40;;;;;;;;;;;20.90;99.90;;;;;;5101149;28;20159;-61
2022/05/07 10:36:07;;;;;;;;;;;20.80;99.90;;;;;;5114636;28;19924;-61
2022/05/07 10:38:37;;;;;;;;;;;21.00;99.90;;;;;;5096345;28;19939;-61
2022/05/07 10:41:05;;;;;;;;;;;21.10;99.90;;;;;;5095010;28;19924;-61
2022/05/07 10:43:34;;;;;;;;;;;21.40;99.90;;;;;;5114561;28;20022;-61
2022/05/07 10:46:01;;;;;;;;;;;21.50;99.90;;;;;;5113230;28;19923;-61
2022/05/07 10:48:26;;;;;;;;;;;21.70;99.90;;;;;;5113813;28;20420;-61
2022/05/07 10:50:53;;;;;;;;;;;21.80;99.90;;;;;;5096279;28;20015;-61
2022/05/07 10:53:19;;;;;;;;;;;21.80;99.90;;;;;;5114341;28;20014;-61
2022/05/07 10:55:45;;;;;;;;;;;21.90;99.90;;;;;;5113524;28;20022;-61
2022/05/07 10:58:11;;;;;;;;;;;21.80;99.90;;;;;;5110245;28;20698;-61
2022/05/07 11:00:36;;;;;;;;;;;21.90;99.90;;;;;;5111910;28;19920;-61
2022/05/07 11:03:02;;;;;;;;;;;21.80;99.90;;;;;;5113242;28;20331;-61
2022/05/07 11:05:29;;;;;;;;;;;21.90;99.90;;;;;;5113943;28;19930;-61
2022/05/07 11:07:58;;;;;;;;;;;22.00;99.90;;;;;;5114485;28;19924;-61
2022/05/07 11:10:25;;;;;;;;;;;22.00;99.90;;;;;;5094843;28;20424;-61
2022/05/07 11:12:51;;;;;;;;;;;22.10;99.90;;;;;;5113848;28;19959;-61
2022/05/07 11:15:26;;;;;;;;;;;22.10;99.90;;;;;;5113218;28;19931;-61
2022/05/07 11:17:51;;;;;;;;;;;22.10;99.20;;;;;;5114410;28;19924;-61
2022/05/07 11:20:28;;;;;;;;;;;22.20;99.00;;;;;;5113365;28;20018;-61
2022/05/07 11:23:00;;;;;;;;;;;22.40;99.80;;;;;;5113586;28;19967;-61
2022/05/07 11:25:26;;;;;;;;;;;22.00;99.00;;;;;;5094702;28;19931;-61
2022/05/07 11:27:53;;;;;;;;;;;21.50;99.90;;;;;;5093892;28;19924;-61
2022/05/07 11:30:19;;;;;;;;;;;20.80;99.90;;;;;;5110176;28;19928;-61
2022/05/07 11:32:45;;;;;;;;;;;20.50;99.90;;;;;;5113297;28;20015;-61
2022/05/07 11:35:10;;;;;;;;;;;20.40;99.90;;;;;;5113240;28;19970;-61
2022/05/07 11:37:38;;;;;;;;;;;20.70;99.90;;;;;;5112072;28;19923;-61
2022/05/07 11:40:04;;;;;;;;;;;20.90;99.90;;;;;;5095706;28;19928;-61
2022/05/07 11:42:39;;;;;;;;;;;21.20;99.90;;;;;;5113051;28;20281;-61
2022/05/07 11:45:26;;;;;;;;;;;21.80;99.90;;;;;;5113129;28;20453;-61
2022/05/07 11:48:26;;;;;;;;;;;22.30;99.90;;;;;;5112352;28;19973;-61
2022/05/07 11:50:54;;;;;;;;;;;22.40;99.90;;;;;;5109219;28;20047;-61
2022/05/07 11:53:22;;;;;;;;;;;22.50;99.60;;;;;;5095046;28;19931;-61
2022/05/07 11:55:48;;;;;;;;;;;22.50;99.90;;;;;;5104132;28;20315;-61
2022/05/07 11:58:17;;;;;;;;;;;22.20;99.40;;;;;;5112681;28;19927;-61
2022/05/07 12:00:44;;;;;;;;;;;21.80;99.90;;;;;;5114356;28;20388;-61
2022/05/07 12:03:10;;;;;;;;;;;21.30;99.90;;;;;;5112374;28;19923;-61
2022/05/07 12:05:42;;;;;;;;;;;20.90;99.90;;;;;;5112724;28;20346;-61
2022/05/07 12:08:15;;;;;;;;;;;20.90;99.90;;;;;;5113407;28;19923;-61
2022/05/07 12:10:42;;;;;;;;;;;20.90;99.90;;;;;;5114196;28;19924;-61
2022/05/07 12:13:10;;;;;;;;;;;21.10;99.90;;;;;;5116445;28;19931;-61
2022/05/07 12:18:22;;;;;;;;;;;21.20;99.90;;;;;;5117502;28;19923;-61
2022/05/07 12:20:47;;;;;;;;;;;21.30;99.90;;;;;;5117291;28;19924;-61
2022/05/07 12:31:25;;;;;;;;;;;21.20;99.90;;;;;;5117169;28;19982;-61
2022/05/07 12:33:51;;;;;;;;;;;21.40;99.90;;;;;;5114001;28;20008;-61
2022/05/07 12:36:17;;;;;;;;;;;21.80;99.90;;;;;;5107520;28;19925;-61
2022/05/07 12:38:43;;;;;;;;;;;22.30;99.40;;;;;;5114259;28;19923;-61
2022/05/07 12:41:09;;;;;;;;;;;22.70;98.70;;;;;;5097066;28;19926;-61
2022/05/07 12:43:34;;;;;;;;;;;22.90;97.70;;;;;;5116941;28;20010;-61
2022/05/07 12:46:01;;;;;;;;;;;23.10;98.50;;;;;;5098145;28;19924;-61
2022/05/07 12:48:27;;;;;;;;;;;23.40;98.10;;;;;;5115416;28;19923;-61
2022/05/07 12:50:52;;;;;;;;;;;23.40;97.10;;;;;;5116749;28;19926;-61
2022/05/07 12:53:18;;;;;;;;;;;23.20;97.60;;;;;;5086513;28;19924;-61
2022/05/07 12:55:44;;;;;;;;;;;23.00;96.80;;;;;;5107377;28;20444;-61
2022/05/07 12:58:11;;;;;;;;;;;22.50;97.60;;;;;;5098377;28;20310;-61
2022/05/07 13:00:38;;;;;;;;;;;21.90;98.40;;;;;;5116131;28;20282;-61
2022/05/07 13:03:04;;;;;;;;;;;21.40;99.90;;;;;;5115945;28;20280;-61
2022/05/07 13:05:30;;;;;;;;;;;21.50;99.90;;;;;;5097147;28;19930;-61
2022/05/07 13:07:56;;;;;;;;;;;21.50;99.90;;;;;;5115018;28;19977;-62
2022/05/07 13:10:22;;;;;;;;;;;21.60;99.90;;;;;;5094283;28;19946;-61
2022/05/07 13:12:48;;;;;;;;;;;21.60;99.90;;;;;;5114882;28;20481;-61
2022/05/07 13:15:14;;;;;;;;;;;21.80;99.90;;;;;;5114712;28;19974;-61
2022/05/07 13:17:40;;;;;;;;;;;22.20;99.90;;;;;;5115360;28;19967;-62
2022/05/07 13:20:06;;;;;;;;;;;22.20;98.80;;;;;;5116158;28;19932;-62
2022/05/07 13:22:33;;;;;;;;;;;22.40;99.30;;;;;;5114291;28;20006;-61
2022/05/07 13:24:58;;;;;;;;;;;22.50;99.10;;;;;;5114135;28;19924;-61
2022/05/07 13:27:24;;;;;;;;;;;22.50;97.70;;;;;;5116147;28;19979;-61
2022/05/07 13:29:50;;;;;;;;;;;22.50;97.10;;;;;;5114647;28;19978;-62
2022/05/07 13:32:15;;;;;;;;;;;22.50;96.50;;;;;;5115272;28;19924;-61
2022/05/07 13:34:42;;;;;;;;;;;22.50;97.10;;;;;;5115983;28;19931;-61
2022/05/07 13:37:08;;;;;;;;;;;22.40;96.40;;;;;;5114768;28;20396;-62
2022/05/07 13:39:33;;;;;;;;;;;22.50;97.10;;;;;;5113284;28;19924;-61
2022/05/07 13:42:00;;;;;;;;;;;22.60;97.50;;;;;;5115218;28;19931;-62
2022/05/07 13:44:26;;;;;;;;;;;22.60;98.30;;;;;;5114052;28;19973;-62
2022/05/07 13:46:52;;;;;;;;;;;22.50;98.80;;;;;;5115014;28;19923;-62
2022/05/07 13:49:18;;;;;;;;;;;22.20;98.50;;;;;;5096839;28;19924;-62
2022/05/07 13:51:43;;;;;;;;;;;21.80;99.90;;;;;;5114248;28;19976;-62
2022/05/07 13:54:09;;;;;;;;;;;21.50;99.90;;;;;;5115193;28;19920;-62
2022/05/07 13:56:34;;;;;;;;;;;21.60;99.90;;;;;;5115737;28;19928;-62
2022/05/07 13:59:00;;;;;;;;;;;21.60;99.90;;;;;;5114694;28;20370;-62
2022/05/07 14:01:27;;;;;;;;;;;21.60;99.90;;;;;;5115227;28;19924;-62
2022/05/07 14:03:52;;;;;;;;;;;21.50;99.90;;;;;;5115553;28;20389;-62
2022/05/07 14:06:19;;;;;;;;;;;21.20;99.90;;;;;;5096918;28;19924;-62
2022/05/07 14:08:47;;;;;;;;;;;21.50;99.90;;;;;;5114929;28;20014;-62
2022/05/07 14:11:14;;;;;;;;;;;21.70;99.90;;;;;;5114914;28;19923;-62
2022/05/07 14:13:41;;;;;;;;;;;21.60;99.90;;;;;;5115350;28;19924;-63
2022/05/07 14:16:06;;;;;;;;;;;22.10;99.60;;;;;;5114725;28;19924;-62
2022/05/07 14:18:32;;;;;;;;;;;22.20;98.90;;;;;;5096230;28;19931;-62
2022/05/07 14:20:59;;;;;;;;;;;22.40;98.40;;;;;;5114924;28;20384;-62
2022/05/07 14:23:24;;;;;;;;;;;22.20;98.20;;;;;;5114506;28;19928;-62
2022/05/07 14:25:50;;;;;;;;;;;21.90;98.40;;;;;;5113947;28;19927;-62
2022/05/07 14:28:16;;;;;;;;;;;21.50;98.30;;;;;;5114829;28;20415;-61
2022/05/07 14:30:42;;;;;;;;;;;20.90;99.70;;;;;;5114399;28;19934;-62
2022/05/07 14:33:08;;;;;;;;;;;20.90;99.90;;;;;;5113300;28;19930;-62
2022/05/07 14:35:34;;;;;;;;;;;21.10;99.40;;;;;;5114945;28;20358;-62
2022/05/07 14:37:59;;;;;;;;;;;21.30;99.00;;;;;;5114685;28;19969;-62
2022/05/07 14:40:31;;;;;;;;;;;21.20;98.60;;;;;;5114439;28;19924;-62
2022/05/07 14:42:57;;;;;;;;;;;20.80;99.60;;;;;;5114365;28;19977;-62
2022/05/07 14:45:23;;;;;;;;;;;21.10;99.60;;;;;;5091474;28;19923;-62
2022/05/07 14:47:49;;;;;;;;;;;21.40;99.20;;;;;;5074916;28;19930;-62
2022/05/07 14:50:15;;;;;;;;;;;22.00;98.60;;;;;;5104509;28;19932;-62
2022/05/07 14:52:40;;;;;;;;;;;22.20;97.00;;;;;;5113563;28;19924;-62
2022/05/07 14:55:06;;;;;;;;;;;22.20;97.20;;;;;;5095353;28;19930;-62
2022/05/07 14:57:32;;;;;;;;;;;21.90;98.00;;;;;;5114557;28;19932;-62
2022/05/07 14:59:58;;;;;;;;;;;21.70;98.20;;;;;;5113370;28;19927;-62